createdAt,value
2022-07-31T00:05:42.594Z,14.75
2022-07-31T00:15:48.678Z,14.74
2022-07-31T00:25:54.474Z,14.76
2022-07-31T00:36:00.300Z,14.74
2022-07-31T00:46:07.034Z,14.74
2022-07-31T00:56:20.448Z,14.70
2022-07-31T01:06:26.405Z,14.63
2022-07-31T01:16:37.313Z,14.59
2022-07-31T01:26:50.550Z,14.56
2022-07-31T01:37:02.594Z,14.53
2022-07-31T01:47:10.489Z,14.50
2022-07-31T01:57:18.939Z,14.43
2022-07-31T02:07:26.226Z,14.36
2022-07-31T02:17:32.486Z,14.33
2022-07-31T02:27:53.607Z,14.31
2022-07-31T02:38:06.043Z,14.33
2022-07-31T02:48:28.726Z,14.35
2022-07-31T02:58:34.966Z,14.33
2022-07-31T03:08:40.660Z,14.33
2022-07-31T03:18:47.219Z,14.30
2022-07-31T03:28:52.940Z,14.26
2022-07-31T03:38:58.855Z,14.17
2022-07-31T03:49:05.530Z,14.12
2022-07-31T03:59:12.023Z,14.12
2022-07-31T04:09:20.302Z,14.12
2022-07-31T04:19:26.152Z,14.12
2022-07-31T04:29:31.979Z,14.12
2022-07-31T04:39:38.540Z,14.14
2022-07-31T04:49:44.315Z,14.20
2022-07-31T04:59:57.967Z,14.22
2022-07-31T05:10:06.794Z,14.23
2022-07-31T05:20:14.043Z,14.26
2022-07-31T05:30:29.906Z,14.27
2022-07-31T05:40:36.597Z,14.26
2022-07-31T05:50:44.589Z,14.24
2022-07-31T06:00:51.491Z,14.19
2022-07-31T06:10:57.367Z,14.12
2022-07-31T06:21:02.986Z,14.12
2022-07-31T06:31:08.809Z,14.22
2022-07-31T06:41:35.536Z,14.29
2022-07-31T06:51:42.648Z,14.38
2022-07-31T07:01:48.603Z,14.39
2022-07-31T07:11:54.985Z,14.39
2022-07-31T07:22:01.027Z,14.52
2022-07-31T07:32:07.705Z,14.69
2022-07-31T07:42:13.438Z,14.80
2022-07-31T07:52:19.581Z,15.02
2022-07-31T08:02:25.389Z,15.37
2022-07-31T08:12:31.124Z,15.59
2022-07-31T08:22:36.835Z,15.55
2022-07-31T08:32:42.631Z,15.56
2022-07-31T08:42:49.265Z,15.53
2022-07-31T08:52:56.023Z,15.52
2022-07-31T09:03:01.998Z,15.50
2022-07-31T09:13:16.632Z,15.36
2022-07-31T09:23:22.634Z,15.40
2022-07-31T09:33:30.878Z,15.42
2022-07-31T09:43:36.858Z,15.38
2022-07-31T09:53:59.752Z,15.31
2022-07-31T10:04:07.257Z,15.23
2022-07-31T10:14:18.213Z,15.32
2022-07-31T10:24:28.634Z,15.56
2022-07-31T10:34:35.699Z,15.84
2022-07-31T10:44:51.696Z,16.01
2022-07-31T10:54:58.409Z,15.88
2022-07-31T11:05:15.632Z,16.01
2022-07-31T11:15:24.279Z,16.07
2022-07-31T11:25:31.775Z,16.16
2022-07-31T11:35:38.435Z,16.01
2022-07-31T11:45:52.679Z,15.95
2022-07-31T11:56:00.827Z,16.27
2022-07-31T12:06:08.375Z,16.36
2022-07-31T12:16:16.049Z,16.52
2022-07-31T12:26:29.863Z,16.53
2022-07-31T12:36:35.644Z,16.24
2022-07-31T12:46:41.567Z,16.11
2022-07-31T12:56:48.406Z,16.18
2022-07-31T13:06:54.468Z,16.22
2022-07-31T13:17:00.279Z,16.09
2022-07-31T13:27:06.314Z,15.84
2022-07-31T13:37:12.422Z,15.67
2022-07-31T13:47:18.338Z,15.73
2022-07-31T13:57:24.241Z,15.64
2022-07-31T14:07:47.991Z,15.65
2022-07-31T14:17:58.512Z,15.60
2022-07-31T14:28:04.260Z,15.53
2022-07-31T14:38:10.281Z,15.44
2022-07-31T14:48:16.349Z,15.38
2022-07-31T14:58:22.692Z,15.44
2022-07-31T15:08:28.623Z,15.40
2022-07-31T15:18:34.388Z,15.35
2022-07-31T15:28:40.202Z,15.48
2022-07-31T15:38:46.155Z,15.37
2022-07-31T15:48:52.383Z,15.30
2022-07-31T15:59:00.239Z,15.22
2022-07-31T16:09:06.049Z,15.18
2022-07-31T16:19:11.753Z,15.09
2022-07-31T16:29:59.571Z,15.05
2022-07-31T16:39:48.496Z,15.08
2022-07-31T16:49:54.374Z,15.07
2022-07-31T17:00:00.322Z,15.06
2022-07-31T17:10:07.369Z,15.08
2022-07-31T17:20:14.956Z,15.08
2022-07-31T17:30:20.849Z,15.09
2022-07-31T17:40:42.410Z,15.06
2022-07-31T17:50:53.825Z,15.05
2022-07-31T18:01:00.092Z,15.07
2022-07-31T18:11:06.595Z,15.09
2022-07-31T18:21:13.516Z,15.06
2022-07-31T18:31:32.311Z,15.04
2022-07-31T18:41:46.816Z,15.00
2022-07-31T18:51:54.255Z,14.94
2022-07-31T19:02:00.786Z,14.89
2022-07-31T19:12:08.794Z,14.84
2022-07-31T19:22:14.874Z,14.81
2022-07-31T19:32:20.928Z,14.77
2022-07-31T19:42:26.811Z,14.69
2022-07-31T19:52:32.741Z,14.60
2022-07-31T20:02:38.480Z,14.53
2022-07-31T20:12:46.014Z,14.48
2022-07-31T20:22:51.834Z,14.37
2022-07-31T20:32:57.565Z,14.29
2022-07-31T20:43:04.700Z,14.25
2022-07-31T20:53:10.563Z,14.24
2022-07-31T21:03:16.894Z,14.19
2022-07-31T21:13:22.737Z,14.10
2022-07-31T21:23:29.145Z,14.05
2022-07-31T21:33:36.089Z,13.98
2022-07-31T21:43:58.894Z,13.88
2022-07-31T21:54:05.980Z,13.73
2022-07-31T22:04:11.895Z,13.59
2022-07-31T22:14:17.676Z,13.40
2022-07-31T22:24:24.055Z,13.23
2022-07-31T22:34:37.801Z,13.09
2022-07-31T22:44:44.328Z,13.00
2022-07-31T22:54:50.702Z,12.90
2022-07-31T23:04:56.523Z,12.79
2022-07-31T23:15:02.350Z,12.77
2022-07-31T23:25:09.891Z,12.76
2022-07-31T23:35:15.779Z,12.72
2022-07-31T23:45:21.642Z,12.57
2022-07-31T23:55:27.663Z,12.33
